sensor_id;sensor_type;location;lat;lon;timestamp;P1;durP1;ratioP1;P2;durP2;ratioP2
5845;SDS011;2949;50.778;7.094;2023-04-01T00:00:18;3.10;;;0.50;;
5845;SDS011;2949;50.778;7.094;2023-04-01T00:02:45;0.63;;;0.40;;
5845;SDS011;2949;50.778;7.094;2023-04-01T00:05:10;1.47;;;0.50;;
5845;SDS011;2949;50.778;7.094;2023-04-01T00:07:37;5.07;;;0.50;;
5845;SDS011;2949;50.778;7.094;2023-04-01T00:10:03;0.67;;;0.30;;
5845;SDS011;2949;50.778;7.094;2023-04-01T00:12:33;0.50;;;0.30;;
5845;SDS011;2949;50.778;7.094;2023-04-01T00:14:59;1.90;;;0.50;;
5845;SDS011;2949;50.778;7.094;2023-04-01T00:17:25;1.77;;;0.50;;
5845;SDS011;2949;50.778;7.094;2023-04-01T00:19:51;1.80;;;0.30;;
5845;SDS011;2949;50.778;7.094;2023-04-01T00:22:16;0.70;;;0.70;;
5845;SDS011;2949;50.778;7.094;2023-04-01T00:24:42;0.67;;;0.33;;
5845;SDS011;2949;50.778;7.094;2023-04-01T00:27:07;1.03;;;0.50;;
5845;SDS011;2949;50.778;7.094;2023-04-01T00:29:33;1.23;;;0.50;;
5845;SDS011;2949;50.778;7.094;2023-04-01T00:31:59;0.40;;;0.40;;
5845;SDS011;2949;50.778;7.094;2023-04-01T00:34:25;0.70;;;0.30;;
5845;SDS011;2949;50.778;7.094;2023-04-01T00:36:51;0.87;;;0.40;;
5845;SDS011;2949;50.778;7.094;2023-04-01T00:39:18;0.70;;;0.40;;
5845;SDS011;2949;50.778;7.094;2023-04-01T00:41:44;0.40;;;0.30;;
5845;SDS011;2949;50.778;7.094;2023-04-01T00:44:17;0.37;;;0.30;;
5845;SDS011;2949;50.778;7.094;2023-04-01T00:46:47;1.53;;;0.40;;
5845;SDS011;2949;50.778;7.094;2023-04-01T00:49:13;0.80;;;0.40;;
5845;SDS011;2949;50.778;7.094;2023-04-01T00:51:40;4.53;;;0.53;;
5845;SDS011;2949;50.778;7.094;2023-04-01T00:54:07;0.77;;;0.63;;
5845;SDS011;2949;50.778;7.094;2023-04-01T00:56:38;1.90;;;0.30;;
5845;SDS011;2949;50.778;7.094;2023-04-01T00:59:11;1.07;;;0.30;;
5845;SDS011;2949;50.778;7.094;2023-04-01T01:01:43;0.73;;;0.60;;
5845;SDS011;2949;50.778;7.094;2023-04-01T01:06:53;0.83;;;0.30;;
5845;SDS011;2949;50.778;7.094;2023-04-01T01:09:49;0.87;;;0.57;;
5845;SDS011;2949;50.778;7.094;2023-04-01T01:12:37;0.30;;;0.27;;
5845;SDS011;2949;50.778;7.094;2023-04-01T01:15:12;3.07;;;0.37;;
5845;SDS011;2949;50.778;7.094;2023-04-01T01:23:37;0.93;;;0.40;;
5845;SDS011;2949;50.778;7.094;2023-04-01T01:31:42;1.70;;;0.43;;
5845;SDS011;2949;50.778;7.094;2023-04-01T01:36:58;0.87;;;0.40;;
5845;SDS011;2949;50.778;7.094;2023-04-01T01:39:30;6.13;;;0.40;;
5845;SDS011;2949;50.778;7.094;2023-04-01T01:41:58;0.30;;;0.23;;
5845;SDS011;2949;50.778;7.094;2023-04-01T01:44:28;0.47;;;0.20;;
5845;SDS011;2949;50.778;7.094;2023-04-01T01:46:55;0.40;;;0.30;;
5845;SDS011;2949;50.778;7.094;2023-04-01T01:49:21;0.73;;;0.40;;
5845;SDS011;2949;50.778;7.094;2023-04-01T01:51:48;0.90;;;0.30;;
5845;SDS011;2949;50.778;7.094;2023-04-01T01:54:15;1.00;;;0.30;;
5845;SDS011;2949;50.778;7.094;2023-04-01T01:56:43;0.30;;;0.20;;
5845;SDS011;2949;50.778;7.094;2023-04-01T01:59:12;0.53;;;0.30;;
5845;SDS011;2949;50.778;7.094;2023-04-01T02:01:45;0.60;;;0.30;;
5845;SDS011;2949;50.778;7.094;2023-04-01T02:04:14;1.23;;;0.40;;
5845;SDS011;2949;50.778;7.094;2023-04-01T02:06:43;0.40;;;0.20;;
5845;SDS011;2949;50.778;7.094;2023-04-01T02:09:18;0.43;;;0.40;;
5845;SDS011;2949;50.778;7.094;2023-04-01T02:11:48;2.60;;;0.30;;
5845;SDS011;2949;50.778;7.094;2023-04-01T02:14:22;0.30;;;0.30;;
5845;SDS011;2949;50.778;7.094;2023-04-01T02:16:57;0.60;;;0.20;;
5845;SDS011;2949;50.778;7.094;2023-04-01T02:19:29;1.90;;;0.40;;
5845;SDS011;2949;50.778;7.094;2023-04-01T02:21:59;0.73;;;0.40;;
5845;SDS011;2949;50.778;7.094;2023-04-01T02:24:27;0.50;;;0.30;;
5845;SDS011;2949;50.778;7.094;2023-04-01T02:26:57;2.10;;;0.40;;
5845;SDS011;2949;50.778;7.094;2023-04-01T02:29:24;1.57;;;0.40;;
5845;SDS011;2949;50.778;7.094;2023-04-01T02:31:50;0.70;;;0.30;;
5845;SDS011;2949;50.778;7.094;2023-04-01T02:34:18;0.60;;;0.30;;
5845;SDS011;2949;50.778;7.094;2023-04-01T02:36:44;0.53;;;0.53;;
5845;SDS011;2949;50.778;7.094;2023-04-01T02:39:11;0.50;;;0.20;;
5845;SDS011;2949;50.778;7.094;2023-04-01T02:41:39;0.30;;;0.30;;
5845;SDS011;2949;50.778;7.094;2023-04-01T02:44:05;2.10;;;0.30;;
5845;SDS011;2949;50.778;7.094;2023-04-01T02:46:32;0.63;;;0.30;;
5845;SDS011;2949;50.778;7.094;2023-04-01T02:48:57;4.73;;;0.40;;
5845;SDS011;2949;50.778;7.094;2023-04-01T02:51:23;1.03;;;0.30;;
5845;SDS011;2949;50.778;7.094;2023-04-01T02:53:48;0.73;;;0.30;;
5845;SDS011;2949;50.778;7.094;2023-04-01T02:56:14;0.43;;;0.30;;
5845;SDS011;2949;50.778;7.094;2023-04-01T02:58:39;0.93;;;0.30;;
5845;SDS011;2949;50.778;7.094;2023-04-01T03:01:05;0.40;;;0.30;;
5845;SDS011;2949;50.778;7.094;2023-04-01T03:03:30;0.47;;;0.40;;
5845;SDS011;2949;50.778;7.094;2023-04-01T03:05:56;0.40;;;0.30;;
5845;SDS011;2949;50.778;7.094;2023-04-01T03:08:23;0.60;;;0.40;;
5845;SDS011;2949;50.778;7.094;2023-04-01T03:10:49;0.40;;;0.30;;
5845;SDS011;2949;50.778;7.094;2023-04-01T03:13:14;1.23;;;0.40;;
5845;SDS011;2949;50.778;7.094;2023-04-01T03:15:40;1.03;;;0.30;;
5845;SDS011;2949;50.778;7.094;2023-04-01T03:18:05;0.70;;;0.40;;
5845;SDS011;2949;50.778;7.094;2023-04-01T03:20:31;0.90;;;0.30;;
5845;SDS011;2949;50.778;7.094;2023-04-01T03:22:56;0.37;;;0.37;;
5845;SDS011;2949;50.778;7.094;2023-04-01T03:25:22;0.30;;;0.20;;
5845;SDS011;2949;50.778;7.094;2023-04-01T03:27:48;1.83;;;0.40;;
5845;SDS011;2949;50.778;7.094;2023-04-01T03:30:13;1.33;;;0.30;;
5845;SDS011;2949;50.778;7.094;2023-04-01T03:32:39;0.60;;;0.33;;
5845;SDS011;2949;50.778;7.094;2023-04-01T03:35:04;0.30;;;0.30;;
5845;SDS011;2949;50.778;7.094;2023-04-01T03:37:30;1.33;;;0.60;;
5845;SDS011;2949;50.778;7.094;2023-04-01T03:39:56;0.40;;;0.30;;
5845;SDS011;2949;50.778;7.094;2023-04-01T03:42:22;0.80;;;0.30;;
5845;SDS011;2949;50.778;7.094;2023-04-01T03:44:47;0.20;;;0.20;;
5845;SDS011;2949;50.778;7.094;2023-04-01T03:47:13;0.87;;;0.40;;
5845;SDS011;2949;50.778;7.094;2023-04-01T03:49:38;0.70;;;0.43;;
5845;SDS011;2949;50.778;7.094;2023-04-01T03:52:04;1.03;;;0.20;;
5845;SDS011;2949;50.778;7.094;2023-04-01T03:54:32;0.30;;;0.23;;
5845;SDS011;2949;50.778;7.094;2023-04-01T03:56:58;0.30;;;0.23;;
5845;SDS011;2949;50.778;7.094;2023-04-01T03:59:23;0.63;;;0.33;;
5845;SDS011;2949;50.778;7.094;2023-04-01T04:01:49;0.30;;;0.20;;
5845;SDS011;2949;50.778;7.094;2023-04-01T04:04:15;1.03;;;0.43;;
5845;SDS011;2949;50.778;7.094;2023-04-01T04:06:41;1.20;;;0.30;;
5845;SDS011;2949;50.778;7.094;2023-04-01T04:09:07;0.30;;;0.30;;
5845;SDS011;2949;50.778;7.094;2023-04-01T04:11:32;0.30;;;0.30;;
5845;SDS011;2949;50.778;7.094;2023-04-01T04:13:58;0.30;;;0.30;;
5845;SDS011;2949;50.778;7.094;2023-04-01T04:16:24;0.33;;;0.20;;
5845;SDS011;2949;50.778;7.094;2023-04-01T04:18:49;0.20;;;0.20;;
5845;SDS011;2949;50.778;7.094;2023-04-01T04:21:16;0.20;;;0.20;;
5845;SDS011;2949;50.778;7.094;2023-04-01T04:23:42;0.50;;;0.20;;
5845;SDS011;2949;50.778;7.094;2023-04-01T04:26:10;0.50;;;0.20;;
5845;SDS011;2949;50.778;7.094;2023-04-01T04:28:37;0.60;;;0.30;;
5845;SDS011;2949;50.778;7.094;2023-04-01T04:31:03;0.23;;;0.20;;
5845;SDS011;2949;50.778;7.094;2023-04-01T04:33:32;1.43;;;1.13;;
5845;SDS011;2949;50.778;7.094;2023-04-01T04:35:59;0.80;;;0.30;;
5845;SDS011;2949;50.778;7.094;2023-04-01T04:38:25;0.30;;;0.30;;
5845;SDS011;2949;50.778;7.094;2023-04-01T04:40:51;0.20;;;0.20;;
5845;SDS011;2949;50.778;7.094;2023-04-01T04:43:17;0.40;;;0.30;;
5845;SDS011;2949;50.778;7.094;2023-04-01T04:45:43;0.30;;;0.20;;
5845;SDS011;2949;50.778;7.094;2023-04-01T04:48:10;0.40;;;0.20;;
5845;SDS011;2949;50.778;7.094;2023-04-01T04:50:40;0.60;;;0.30;;
5845;SDS011;2949;50.778;7.094;2023-04-01T04:53:09;0.30;;;0.20;;
5845;SDS011;2949;50.778;7.094;2023-04-01T04:55:35;0.50;;;0.20;;
5845;SDS011;2949;50.778;7.094;2023-04-01T04:58:00;0.60;;;0.50;;
5845;SDS011;2949;50.778;7.094;2023-04-01T05:00:26;0.40;;;0.20;;
5845;SDS011;2949;50.778;7.094;2023-04-01T05:02:51;0.30;;;0.30;;
5845;SDS011;2949;50.778;7.094;2023-04-01T05:05:17;0.20;;;0.20;;
5845;SDS011;2949;50.778;7.094;2023-04-01T05:07:42;0.30;;;0.20;;
5845;SDS011;2949;50.778;7.094;2023-04-01T05:10:08;0.30;;;0.20;;
5845;SDS011;2949;50.778;7.094;2023-04-01T05:12:34;0.87;;;0.20;;
5845;SDS011;2949;50.778;7.094;2023-04-01T05:15:05;0.40;;;0.20;;
5845;SDS011;2949;50.778;7.094;2023-04-01T05:17:32;0.30;;;0.30;;
5845;SDS011;2949;50.778;7.094;2023-04-01T05:19:58;1.03;;;0.30;;
5845;SDS011;2949;50.778;7.094;2023-04-01T05:22:23;1.27;;;0.30;;
5845;SDS011;2949;50.778;7.094;2023-04-01T05:24:49;0.30;;;0.20;;
5845;SDS011;2949;50.778;7.094;2023-04-01T05:27:14;0.30;;;0.23;;
5845;SDS011;2949;50.778;7.094;2023-04-01T05:29:40;0.30;;;0.20;;
5845;SDS011;2949;50.778;7.094;2023-04-01T05:32:06;0.20;;;0.20;;
5845;SDS011;2949;50.778;7.094;2023-04-01T05:34:31;0.30;;;0.20;;
5845;SDS011;2949;50.778;7.094;2023-04-01T05:36:57;2.10;;;0.30;;
5845;SDS011;2949;50.778;7.094;2023-04-01T05:39:23;2.63;;;0.30;;
5845;SDS011;2949;50.778;7.094;2023-04-01T05:41:48;4.43;;;0.30;;
5845;SDS011;2949;50.778;7.094;2023-04-01T05:44:14;0.90;;;0.37;;
5845;SDS011;2949;50.778;7.094;2023-04-01T05:46:40;0.73;;;0.20;;
5845;SDS011;2949;50.778;7.094;2023-04-01T05:49:06;0.30;;;0.27;;
5845;SDS011;2949;50.778;7.094;2023-04-01T05:51:31;0.30;;;0.20;;
5845;SDS011;2949;50.778;7.094;2023-04-01T05:53:57;1.03;;;0.30;;
5845;SDS011;2949;50.778;7.094;2023-04-01T05:56:22;0.30;;;0.20;;
5845;SDS011;2949;50.778;7.094;2023-04-01T05:58:50;0.30;;;0.27;;
5845;SDS011;2949;50.778;7.094;2023-04-01T06:01:16;3.50;;;0.30;;
5845;SDS011;2949;50.778;7.094;2023-04-01T06:03:43;0.50;;;0.30;;
5845;SDS011;2949;50.778;7.094;2023-04-01T06:06:11;0.30;;;0.30;;
5845;SDS011;2949;50.778;7.094;2023-04-01T06:08:47;0.30;;;0.20;;
5845;SDS011;2949;50.778;7.094;2023-04-01T06:17:18;0.30;;;0.20;;
5845;SDS011;2949;50.778;7.094;2023-04-01T06:32:12;4.83;;;0.40;;
5845;SDS011;2949;50.778;7.094;2023-04-01T06:40:22;0.30;;;0.30;;
5845;SDS011;2949;50.778;7.094;2023-04-01T06:43:02;0.30;;;0.20;;
5845;SDS011;2949;50.778;7.094;2023-04-01T06:45:42;0.30;;;0.30;;
5845;SDS011;2949;50.778;7.094;2023-04-01T06:54:04;2.30;;;0.33;;
5845;SDS011;2949;50.778;7.094;2023-04-01T06:56:36;0.40;;;0.40;;
5845;SDS011;2949;50.778;7.094;2023-04-01T06:59:05;0.30;;;0.30;;
5845;SDS011;2949;50.778;7.094;2023-04-01T07:01:45;0.70;;;0.30;;
5845;SDS011;2949;50.778;7.094;2023-04-01T07:04:23;0.43;;;0.43;;
5845;SDS011;2949;50.778;7.094;2023-04-01T07:06:54;2.77;;;0.30;;
5845;SDS011;2949;50.778;7.094;2023-04-01T07:09:27;1.70;;;0.37;;
5845;SDS011;2949;50.778;7.094;2023-04-01T07:12:00;0.90;;;0.30;;
5845;SDS011;2949;50.778;7.094;2023-04-01T07:14:37;0.30;;;0.30;;
5845;SDS011;2949;50.778;7.094;2023-04-01T07:22:29;0.80;;;0.60;;
5845;SDS011;2949;50.778;7.094;2023-04-01T07:25:01;0.43;;;0.40;;
5845;SDS011;2949;50.778;7.094;2023-04-01T07:27:36;2.53;;;0.60;;
5845;SDS011;2949;50.778;7.094;2023-04-01T07:30:02;2.33;;;0.50;;
5845;SDS011;2949;50.778;7.094;2023-04-01T07:32:50;0.80;;;0.60;;
5845;SDS011;2949;50.778;7.094;2023-04-01T07:38:16;0.50;;;0.40;;
5845;SDS011;2949;50.778;7.094;2023-04-01T07:41:02;0.60;;;0.60;;
5845;SDS011;2949;50.778;7.094;2023-04-01T07:46:17;0.40;;;0.40;;
5845;SDS011;2949;50.778;7.094;2023-04-01T07:49:11;0.83;;;0.40;;
5845;SDS011;2949;50.778;7.094;2023-04-01T07:54:26;0.60;;;0.60;;
5845;SDS011;2949;50.778;7.094;2023-04-01T08:00:02;2.57;;;0.50;;
5845;SDS011;2949;50.778;7.094;2023-04-01T08:05:29;0.40;;;0.40;;
5845;SDS011;2949;50.778;7.094;2023-04-01T08:11:03;0.70;;;0.50;;
5845;SDS011;2949;50.778;7.094;2023-04-01T08:13:48;1.03;;;0.43;;
5845;SDS011;2949;50.778;7.094;2023-04-01T08:21:55;0.40;;;0.40;;
5845;SDS011;2949;50.778;7.094;2023-04-01T08:24:33;4.47;;;0.70;;
5845;SDS011;2949;50.778;7.094;2023-04-01T08:27:03;1.03;;;0.40;;
5845;SDS011;2949;50.778;7.094;2023-04-01T08:29:38;0.67;;;0.40;;
5845;SDS011;2949;50.778;7.094;2023-04-01T08:34:47;0.50;;;0.50;;
5845;SDS011;2949;50.778;7.094;2023-04-01T08:37:36;0.30;;;0.30;;
5845;SDS011;2949;50.778;7.094;2023-04-01T08:42:55;0.70;;;0.60;;
5845;SDS011;2949;50.778;7.094;2023-04-01T08:45:44;1.00;;;0.73;;
5845;SDS011;2949;50.778;7.094;2023-04-01T08:48:31;0.50;;;0.33;;
5845;SDS011;2949;50.778;7.094;2023-04-01T08:54:21;0.30;;;0.30;;
5845;SDS011;2949;50.778;7.094;2023-04-01T08:59:47;0.57;;;0.30;;
5845;SDS011;2949;50.778;7.094;2023-04-01T09:02:50;0.80;;;0.40;;
5845;SDS011;2949;50.778;7.094;2023-04-01T09:08:02;0.30;;;0.30;;
5845;SDS011;2949;50.778;7.094;2023-04-01T09:10:51;0.40;;;0.40;;
5845;SDS011;2949;50.778;7.094;2023-04-01T09:13:43;0.30;;;0.30;;
5845;SDS011;2949;50.778;7.094;2023-04-01T09:30:06;1.27;;;1.17;;
5845;SDS011;2949;50.778;7.094;2023-04-01T09:32:49;1.17;;;0.47;;
5845;SDS011;2949;50.778;7.094;2023-04-01T09:35:48;1.70;;;0.87;;
5845;SDS011;2949;50.778;7.094;2023-04-01T09:38:28;1.67;;;1.30;;
5845;SDS011;2949;50.778;7.094;2023-04-01T09:46:48;0.50;;;0.50;;
5845;SDS011;2949;50.778;7.094;2023-04-01T09:54:59;1.90;;;0.40;;
5845;SDS011;2949;50.778;7.094;2023-04-01T09:57:44;0.50;;;0.33;;
5845;SDS011;2949;50.778;7.094;2023-04-01T10:03:36;0.40;;;0.40;;
5845;SDS011;2949;50.778;7.094;2023-04-01T10:21:07;0.30;;;0.30;;
5845;SDS011;2949;50.778;7.094;2023-04-01T10:27:21;0.50;;;0.33;;
5845;SDS011;2949;50.778;7.094;2023-04-01T10:35:44;0.30;;;0.30;;
5845;SDS011;2949;50.778;7.094;2023-04-01T10:38:46;0.30;;;0.30;;
5845;SDS011;2949;50.778;7.094;2023-04-01T10:59:11;0.40;;;0.40;;
5845;SDS011;2949;50.778;7.094;2023-04-01T11:04:56;0.50;;;0.30;;
5845;SDS011;2949;50.778;7.094;2023-04-01T11:13:26;0.40;;;0.40;;
5845;SDS011;2949;50.778;7.094;2023-04-01T11:16:33;0.37;;;0.37;;
5845;SDS011;2949;50.778;7.094;2023-04-01T11:27:25;0.30;;;0.30;;
5845;SDS011;2949;50.778;7.094;2023-04-01T11:30:14;0.30;;;0.30;;
5845;SDS011;2949;50.778;7.094;2023-04-01T11:33:02;0.93;;;0.40;;
5845;SDS011;2949;50.778;7.094;2023-04-01T11:36:00;1.57;;;0.30;;
5845;SDS011;2949;50.778;7.094;2023-04-01T11:41:28;0.33;;;0.30;;
5845;SDS011;2949;50.778;7.094;2023-04-01T11:44:15;2.20;;;0.47;;
5845;SDS011;2949;50.778;7.094;2023-04-01T12:01:15;0.50;;;0.40;;
5845;SDS011;2949;50.778;7.094;2023-04-01T12:12:01;21.17;;;1.00;;
5845;SDS011;2949;50.778;7.094;2023-04-01T12:17:50;0.50;;;0.47;;
5845;SDS011;2949;50.778;7.094;2023-04-01T12:31:05;0.47;;;0.47;;
5845;SDS011;2949;50.778;7.094;2023-04-01T12:33:45;0.63;;;0.63;;
5845;SDS011;2949;50.778;7.094;2023-04-01T12:36:46;0.83;;;0.50;;
5845;SDS011;2949;50.778;7.094;2023-04-01T12:39:37;0.40;;;0.40;;
5845;SDS011;2949;50.778;7.094;2023-04-01T12:45:28;0.30;;;0.30;;
5845;SDS011;2949;50.778;7.094;2023-04-01T12:54:25;2.30;;;0.47;;
5845;SDS011;2949;50.778;7.094;2023-04-01T13:08:01;0.40;;;0.40;;
5845;SDS011;2949;50.778;7.094;2023-04-01T13:16:16;0.30;;;0.20;;
5845;SDS011;2949;50.778;7.094;2023-04-01T13:19:00;0.43;;;0.30;;
5845;SDS011;2949;50.778;7.094;2023-04-01T13:24:38;0.50;;;0.50;;
5845;SDS011;2949;50.778;7.094;2023-04-01T13:27:09;3.70;;;0.30;;
5845;SDS011;2949;50.778;7.094;2023-04-01T13:29:59;0.77;;;0.30;;
5845;SDS011;2949;50.778;7.094;2023-04-01T13:35:45;0.40;;;0.40;;
5845;SDS011;2949;50.778;7.094;2023-04-01T13:43:49;0.50;;;0.50;;
5845;SDS011;2949;50.778;7.094;2023-04-01T13:46:29;1.23;;;0.43;;
5845;SDS011;2949;50.778;7.094;2023-04-01T13:54:42;0.37;;;0.37;;
5845;SDS011;2949;50.778;7.094;2023-04-01T14:00:25;0.30;;;0.30;;
5845;SDS011;2949;50.778;7.094;2023-04-01T14:11:32;0.60;;;0.60;;
5845;SDS011;2949;50.778;7.094;2023-04-01T14:17:10;0.53;;;0.40;;
5845;SDS011;2949;50.778;7.094;2023-04-01T14:23:07;0.43;;;0.43;;
5845;SDS011;2949;50.778;7.094;2023-04-01T14:36:25;0.40;;;0.40;;
5845;SDS011;2949;50.778;7.094;2023-04-01T14:39:12;0.70;;;0.70;;
5845;SDS011;2949;50.778;7.094;2023-04-01T14:42:03;1.00;;;0.60;;
5845;SDS011;2949;50.778;7.094;2023-04-01T14:45:12;2.40;;;1.67;;
5845;SDS011;2949;50.778;7.094;2023-04-01T14:47:54;1.13;;;0.60;;
5845;SDS011;2949;50.778;7.094;2023-04-01T14:50:42;0.93;;;0.40;;
5845;SDS011;2949;50.778;7.094;2023-04-01T14:55:54;0.40;;;0.40;;
5845;SDS011;2949;50.778;7.094;2023-04-01T14:58:22;1.50;;;0.50;;
5845;SDS011;2949;50.778;7.094;2023-04-01T15:01:01;1.67;;;0.80;;
5845;SDS011;2949;50.778;7.094;2023-04-01T15:06:45;0.50;;;0.50;;
5845;SDS011;2949;50.778;7.094;2023-04-01T15:09:39;0.50;;;0.50;;
5845;SDS011;2949;50.778;7.094;2023-04-01T15:14:47;1.13;;;0.73;;
5845;SDS011;2949;50.778;7.094;2023-04-01T15:17:30;1.80;;;0.70;;
5845;SDS011;2949;50.778;7.094;2023-04-01T15:20:20;1.10;;;1.10;;
5845;SDS011;2949;50.778;7.094;2023-04-01T15:23:03;0.60;;;0.60;;
5845;SDS011;2949;50.778;7.094;2023-04-01T15:26:12;0.70;;;0.70;;
5845;SDS011;2949;50.778;7.094;2023-04-01T15:31:50;2.30;;;0.70;;
5845;SDS011;2949;50.778;7.094;2023-04-01T15:34:47;1.37;;;0.47;;
5845;SDS011;2949;50.778;7.094;2023-04-01T15:43:40;0.50;;;0.50;;
5845;SDS011;2949;50.778;7.094;2023-04-01T15:46:20;0.80;;;0.80;;
5845;SDS011;2949;50.778;7.094;2023-04-01T15:49:11;2.70;;;0.50;;
5845;SDS011;2949;50.778;7.094;2023-04-01T15:51:43;0.87;;;0.87;;
5845;SDS011;2949;50.778;7.094;2023-04-01T15:54:31;1.87;;;0.77;;
5845;SDS011;2949;50.778;7.094;2023-04-01T15:57:28;0.67;;;0.67;;
5845;SDS011;2949;50.778;7.094;2023-04-01T16:19:49;1.00;;;1.00;;
5845;SDS011;2949;50.778;7.094;2023-04-01T16:24:59;1.30;;;1.20;;
5845;SDS011;2949;50.778;7.094;2023-04-01T16:32:51;1.00;;;1.00;;
5845;SDS011;2949;50.778;7.094;2023-04-01T16:38:12;0.73;;;0.73;;
5845;SDS011;2949;50.778;7.094;2023-04-01T16:49:04;0.90;;;0.90;;
5845;SDS011;2949;50.778;7.094;2023-04-01T16:57:19;1.37;;;1.10;;
5845;SDS011;2949;50.778;7.094;2023-04-01T17:03:01;1.37;;;0.60;;
5845;SDS011;2949;50.778;7.094;2023-04-01T17:05:48;1.00;;;1.00;;
5845;SDS011;2949;50.778;7.094;2023-04-01T17:08:37;0.80;;;0.80;;
5845;SDS011;2949;50.778;7.094;2023-04-01T17:11:13;1.17;;;1.17;;
5845;SDS011;2949;50.778;7.094;2023-04-01T17:22:34;0.80;;;0.80;;
5845;SDS011;2949;50.778;7.094;2023-04-01T17:25:39;0.90;;;0.90;;
5845;SDS011;2949;50.778;7.094;2023-04-01T17:28:17;0.70;;;0.70;;
5845;SDS011;2949;50.778;7.094;2023-04-01T17:36:27;2.53;;;2.33;;
5845;SDS011;2949;50.778;7.094;2023-04-01T17:42:04;1.93;;;1.83;;
5845;SDS011;2949;50.778;7.094;2023-04-01T17:47:00;0.80;;;0.80;;
5845;SDS011;2949;50.778;7.094;2023-04-01T17:52:37;0.80;;;0.77;;
5845;SDS011;2949;50.778;7.094;2023-04-01T18:06:33;0.90;;;0.90;;
5845;SDS011;2949;50.778;7.094;2023-04-01T18:09:15;1.10;;;1.10;;
5845;SDS011;2949;50.778;7.094;2023-04-01T18:12:04;0.90;;;0.90;;
5845;SDS011;2949;50.778;7.094;2023-04-01T18:20:23;0.97;;;0.97;;
5845;SDS011;2949;50.778;7.094;2023-04-01T18:25:46;1.27;;;1.20;;
5845;SDS011;2949;50.778;7.094;2023-04-01T18:30:50;1.20;;;1.10;;
5845;SDS011;2949;50.778;7.094;2023-04-01T18:33:30;1.07;;;1.07;;
5845;SDS011;2949;50.778;7.094;2023-04-01T18:36:15;1.40;;;1.30;;
5845;SDS011;2949;50.778;7.094;2023-04-01T18:39:03;1.43;;;1.33;;
5845;SDS011;2949;50.778;7.094;2023-04-01T18:41:36;1.83;;;1.73;;
5845;SDS011;2949;50.778;7.094;2023-04-01T18:47:30;1.20;;;1.10;;
5845;SDS011;2949;50.778;7.094;2023-04-01T18:52:43;3.03;;;1.23;;
5845;SDS011;2949;50.778;7.094;2023-04-01T18:55:29;1.73;;;1.63;;
5845;SDS011;2949;50.778;7.094;2023-04-01T18:58:52;1.70;;;1.60;;
5845;SDS011;2949;50.778;7.094;2023-04-01T19:04:42;2.17;;;2.07;;
5845;SDS011;2949;50.778;7.094;2023-04-01T19:10:00;1.87;;;1.77;;
5845;SDS011;2949;50.778;7.094;2023-04-01T19:15:29;1.93;;;1.83;;
5845;SDS011;2949;50.778;7.094;2023-04-01T19:21:06;3.40;;;2.30;;
5845;SDS011;2949;50.778;7.094;2023-04-01T19:24:03;2.17;;;2.07;;
5845;SDS011;2949;50.778;7.094;2023-04-01T19:27:17;2.57;;;2.37;;
5845;SDS011;2949;50.778;7.094;2023-04-01T19:32:30;3.00;;;2.80;;
5845;SDS011;2949;50.778;7.094;2023-04-01T19:38:04;2.90;;;2.70;;
5845;SDS011;2949;50.778;7.094;2023-04-01T19:40:44;3.07;;;2.87;;
5845;SDS011;2949;50.778;7.094;2023-04-01T19:46:14;4.97;;;3.00;;
5845;SDS011;2949;50.778;7.094;2023-04-01T19:48:52;3.27;;;2.97;;
5845;SDS011;2949;50.778;7.094;2023-04-01T19:52:00;4.20;;;3.10;;
5845;SDS011;2949;50.778;7.094;2023-04-01T19:54:44;5.07;;;2.83;;
5845;SDS011;2949;50.778;7.094;2023-04-01T19:57:17;3.50;;;3.30;;
5845;SDS011;2949;50.778;7.094;2023-04-01T20:00:15;3.70;;;3.03;;
5845;SDS011;2949;50.778;7.094;2023-04-01T20:08:11;3.10;;;2.80;;
5845;SDS011;2949;50.778;7.094;2023-04-01T20:11:18;4.90;;;2.90;;
5845;SDS011;2949;50.778;7.094;2023-04-01T20:19:48;2.70;;;2.50;;
5845;SDS011;2949;50.778;7.094;2023-04-01T20:24:50;1.93;;;1.83;;
5845;SDS011;2949;50.778;7.094;2023-04-01T20:27:22;2.00;;;1.90;;
5845;SDS011;2949;50.778;7.094;2023-04-01T20:36:12;1.67;;;1.57;;
5845;SDS011;2949;50.778;7.094;2023-04-01T20:41:54;1.23;;;1.13;;
5845;SDS011;2949;50.778;7.094;2023-04-01T20:44:39;1.17;;;1.17;;
5845;SDS011;2949;50.778;7.094;2023-04-01T20:47:24;1.30;;;1.30;;
5845;SDS011;2949;50.778;7.094;2023-04-01T20:52:42;1.40;;;1.30;;
5845;SDS011;2949;50.778;7.094;2023-04-01T20:55:38;1.93;;;1.20;;
5845;SDS011;2949;50.778;7.094;2023-04-01T20:58:24;1.33;;;1.30;;
5845;SDS011;2949;50.778;7.094;2023-04-01T21:03:44;0.87;;;0.87;;
5845;SDS011;2949;50.778;7.094;2023-04-01T21:06:32;1.07;;;1.07;;
5845;SDS011;2949;50.778;7.094;2023-04-01T21:12:03;1.43;;;1.30;;
5845;SDS011;2949;50.778;7.094;2023-04-01T21:14:50;2.23;;;1.60;;
5845;SDS011;2949;50.778;7.094;2023-04-01T21:20:13;1.80;;;1.70;;
5845;SDS011;2949;50.778;7.094;2023-04-01T21:23:34;3.80;;;1.57;;
5845;SDS011;2949;50.778;7.094;2023-04-01T21:38:14;2.20;;;2.10;;
5845;SDS011;2949;50.778;7.094;2023-04-01T21:41:17;1.60;;;1.60;;
5845;SDS011;2949;50.778;7.094;2023-04-01T21:43:54;2.20;;;1.50;;
5845;SDS011;2949;50.778;7.094;2023-04-01T21:55:32;2.67;;;2.00;;
5845;SDS011;2949;50.778;7.094;2023-04-01T21:58:38;1.90;;;1.80;;
5845;SDS011;2949;50.778;7.094;2023-04-01T22:01:40;2.30;;;2.13;;
5845;SDS011;2949;50.778;7.094;2023-04-01T22:04:31;3.53;;;1.80;;
5845;SDS011;2949;50.778;7.094;2023-04-01T22:09:39;3.27;;;1.90;;
5845;SDS011;2949;50.778;7.094;2023-04-01T22:12:23;5.60;;;2.50;;
5845;SDS011;2949;50.778;7.094;2023-04-01T22:26:38;1.90;;;1.80;;
5845;SDS011;2949;50.778;7.094;2023-04-01T22:29:20;1.77;;;1.70;;
5845;SDS011;2949;50.778;7.094;2023-04-01T22:32:07;3.37;;;1.83;;
5845;SDS011;2949;50.778;7.094;2023-04-01T22:35:00;1.70;;;1.60;;
5845;SDS011;2949;50.778;7.094;2023-04-01T22:37:37;1.40;;;1.40;;
5845;SDS011;2949;50.778;7.094;2023-04-01T22:40:19;2.30;;;1.40;;
5845;SDS011;2949;50.778;7.094;2023-04-01T22:48:06;1.13;;;1.13;;
5845;SDS011;2949;50.778;7.094;2023-04-01T22:50:36;1.47;;;1.37;;
5845;SDS011;2949;50.778;7.094;2023-04-01T22:53:17;3.43;;;1.40;;
5845;SDS011;2949;50.778;7.094;2023-04-01T22:55:52;1.03;;;1.03;;
5845;SDS011;2949;50.778;7.094;2023-04-01T22:58:24;1.40;;;1.30;;
5845;SDS011;2949;50.778;7.094;2023-04-01T23:04:15;1.20;;;1.20;;
5845;SDS011;2949;50.778;7.094;2023-04-01T23:06:47;1.37;;;1.27;;
5845;SDS011;2949;50.778;7.094;2023-04-01T23:09:22;1.30;;;1.30;;
5845;SDS011;2949;50.778;7.094;2023-04-01T23:12:04;1.93;;;1.40;;
5845;SDS011;2949;50.778;7.094;2023-04-01T23:14:41;1.20;;;1.10;;
5845;SDS011;2949;50.778;7.094;2023-04-01T23:17:30;1.00;;;1.00;;
5845;SDS011;2949;50.778;7.094;2023-04-01T23:26:13;1.30;;;1.13;;
5845;SDS011;2949;50.778;7.094;2023-04-01T23:28:59;1.07;;;1.07;;
5845;SDS011;2949;50.778;7.094;2023-04-01T23:36:45;1.10;;;1.10;;
5845;SDS011;2949;50.778;7.094;2023-04-01T23:41:47;0.90;;;0.90;;
5845;SDS011;2949;50.778;7.094;2023-04-01T23:44:14;2.97;;;1.10;;
5845;SDS011;2949;50.778;7.094;2023-04-01T23:46:40;1.47;;;1.23;;
5845;SDS011;2949;50.778;7.094;2023-04-01T23:52:46;1.03;;;1.03;;
5845;SDS011;2949;50.778;7.094;2023-04-01T23:55:31;1.53;;;1.30;;
